createdAt,value
2019-04-10T00:01:19.554Z,21.00
2019-04-10T00:03:50.456Z,21.15
2019-04-10T00:06:21.695Z,24.65
2019-04-10T00:08:52.782Z,19.42
2019-04-10T00:11:26.986Z,20.52
2019-04-10T00:13:57.420Z,21.82
2019-04-10T00:16:27.821Z,23.75
2019-04-10T00:18:58.172Z,20.23
2019-04-10T00:21:29.254Z,25.45
2019-04-10T00:23:59.663Z,18.73
2019-04-10T00:26:31.967Z,23.77
2019-04-10T00:29:03.538Z,22.80
2019-04-10T00:31:33.975Z,20.25
2019-04-10T00:34:05.379Z,21.97
2019-04-10T00:36:35.672Z,21.65
2019-04-10T00:39:08.628Z,20.37
2019-04-10T00:41:39.066Z,21.23
2019-04-10T00:44:09.449Z,23.52
2019-04-10T00:46:40.112Z,20.05
2019-04-10T00:49:10.580Z,22.55
2019-04-10T00:51:41.624Z,19.17
2019-04-10T00:54:12.335Z,21.90
2019-04-10T00:56:43.334Z,20.68
2019-04-10T00:59:15.678Z,20.85
2019-04-10T01:01:46.072Z,18.73
2019-04-10T01:04:16.367Z,19.00
2019-04-10T01:06:46.597Z,20.85
2019-04-10T01:09:17.407Z,20.20
2019-04-10T01:11:47.878Z,20.35
2019-04-10T01:14:18.171Z,19.52
2019-04-10T01:16:49.474Z,18.90
2019-04-10T01:19:19.842Z,17.77
2019-04-10T01:21:50.683Z,17.27
2019-04-10T01:24:21.674Z,19.98
2019-04-10T01:26:52.036Z,20.45
2019-04-10T01:29:22.275Z,17.48
2019-04-10T01:31:53.135Z,17.95
2019-04-10T01:34:23.547Z,21.57
2019-04-10T01:36:54.811Z,22.22
2019-04-10T01:39:28.700Z,21.17
2019-04-10T01:41:59.284Z,20.72
2019-04-10T01:44:30.828Z,18.80
2019-04-10T01:47:01.215Z,19.02
2019-04-10T01:49:31.592Z,17.77
2019-04-10T01:52:01.834Z,21.50
2019-04-10T01:54:33.019Z,26.05
2019-04-10T01:57:04.123Z,23.92
2019-04-10T01:59:36.305Z,24.30
2019-04-10T02:02:17.683Z,20.50
2019-04-10T02:04:51.328Z,23.70
2019-04-10T02:07:20.588Z,21.42
2019-04-10T02:09:51.871Z,15.28
2019-04-10T02:12:23.258Z,22.80
2019-04-10T02:14:54.379Z,20.88
2019-04-10T02:17:25.743Z,22.50
2019-04-10T02:19:56.790Z,25.40
2019-04-10T02:22:27.173Z,20.75
2019-04-10T02:24:57.736Z,19.90
2019-04-10T02:27:28.163Z,19.62
2019-04-10T02:29:58.500Z,21.00
2019-04-10T02:32:28.882Z,22.58
2019-04-10T02:34:59.239Z,20.43
2019-04-10T02:37:31.137Z,20.43
2019-04-10T02:40:04.550Z,19.70
2019-04-10T02:42:34.440Z,20.72
2019-04-10T02:45:05.978Z,19.67
2019-04-10T02:47:37.036Z,22.60
2019-04-10T02:50:09.550Z,22.17
2019-04-10T02:52:41.210Z,17.15
2019-04-10T02:55:11.988Z,19.40
2019-04-10T02:57:43.683Z,19.67
2019-04-10T03:00:14.388Z,15.80
2019-04-10T03:02:45.338Z,17.10
2019-04-10T03:05:16.285Z,19.90
2019-04-10T03:07:48.316Z,21.27
2019-04-10T03:10:26.503Z,19.55
2019-04-10T03:12:52.591Z,17.60
2019-04-10T03:15:23.381Z,18.73
2019-04-10T03:17:54.509Z,18.98
2019-04-10T03:20:24.911Z,19.45
2019-04-10T03:22:56.795Z,14.95
2019-04-10T03:25:27.296Z,15.88
2019-04-10T03:27:58.643Z,14.75
2019-04-10T03:30:29.708Z,13.62
2019-04-10T03:33:22.685Z,13.22
2019-04-10T03:35:52.744Z,11.93
2019-04-10T03:38:23.735Z,9.03
2019-04-10T03:40:54.236Z,10.05
2019-04-10T03:43:24.464Z,9.18
2019-04-10T03:45:55.148Z,11.90
2019-04-10T03:48:25.498Z,10.43
2019-04-10T03:50:56.265Z,8.95
2019-04-10T03:53:27.595Z,8.70
2019-04-10T03:55:57.807Z,7.97
2019-04-10T03:58:28.009Z,8.40
2019-04-10T04:00:58.562Z,8.48
2019-04-10T04:03:28.889Z,6.17
2019-04-10T04:06:00.133Z,8.65
2019-04-10T04:08:31.888Z,7.97
2019-04-10T04:11:02.307Z,6.65
2019-04-10T04:13:33.338Z,7.62
2019-04-10T04:16:03.766Z,6.95
2019-04-10T04:18:34.031Z,8.00
2019-04-10T04:21:05.501Z,8.43
2019-04-10T04:23:36.131Z,7.72
2019-04-10T04:26:07.218Z,7.40
2019-04-10T04:28:37.635Z,7.58
2019-04-10T04:31:07.868Z,8.33
2019-04-10T04:33:38.850Z,7.72
2019-04-10T04:36:10.239Z,7.65
2019-04-10T04:38:41.030Z,6.17
2019-04-10T04:41:11.494Z,7.05
2019-04-10T04:43:43.396Z,9.48
2019-04-10T04:46:14.152Z,7.47
2019-04-10T04:48:45.307Z,8.35
2019-04-10T04:51:15.759Z,8.05
2019-04-10T04:53:46.254Z,7.75
2019-04-10T04:56:17.827Z,7.47
2019-04-10T04:58:49.710Z,11.00
2019-04-10T05:01:21.067Z,9.60
2019-04-10T05:03:52.432Z,8.35
2019-04-10T05:06:24.679Z,7.78
2019-04-10T05:08:54.972Z,8.23
2019-04-10T05:11:25.260Z,9.33
2019-04-10T05:13:56.027Z,8.15
2019-04-10T05:16:27.471Z,10.00
2019-04-10T05:18:57.932Z,9.00
2019-04-10T05:21:28.153Z,9.93
2019-04-10T05:23:58.371Z,9.08
2019-04-10T05:26:28.571Z,8.20
2019-04-10T05:28:58.778Z,8.78
2019-04-10T05:31:29.203Z,9.50
2019-04-10T05:33:59.654Z,7.62
2019-04-10T05:36:29.859Z,6.95
2019-04-10T05:39:00.340Z,8.33
2019-04-10T05:41:31.436Z,8.63
2019-04-10T05:44:02.810Z,9.75
2019-04-10T05:46:34.267Z,9.53
2019-04-10T05:49:04.701Z,7.72
2019-04-10T05:51:34.972Z,8.93
2019-04-10T05:54:06.418Z,10.82
2019-04-10T05:56:36.859Z,14.73
2019-04-10T05:59:09.806Z,8.80
2019-04-10T06:01:41.314Z,8.18
2019-04-10T06:04:11.467Z,8.50
2019-04-10T06:06:41.691Z,6.92
2019-04-10T06:09:12.197Z,9.35
2019-04-10T06:11:44.088Z,10.13
2019-04-10T06:14:15.745Z,7.47
2019-04-10T06:16:46.857Z,7.83
2019-04-10T06:19:17.891Z,7.75
2019-04-10T06:21:50.323Z,7.53
2019-04-10T06:24:20.747Z,8.75
2019-04-10T06:26:52.038Z,12.85
2019-04-10T06:29:23.264Z,10.53
2019-04-10T06:31:53.464Z,7.78
2019-04-10T06:34:24.812Z,8.43
2019-04-10T06:36:55.293Z,6.72
2019-04-10T06:39:26.813Z,7.92
2019-04-10T06:41:58.180Z,7.08
2019-04-10T06:44:28.703Z,9.25
2019-04-10T06:46:59.937Z,8.48
2019-04-10T06:49:31.120Z,7.65
2019-04-10T06:52:01.897Z,8.48
2019-04-10T06:54:33.112Z,10.05
2019-04-10T06:57:03.524Z,7.60
2019-04-10T06:59:34.376Z,8.55
2019-04-10T07:02:16.714Z,7.10
2019-04-10T07:04:46.579Z,9.18
2019-04-10T07:07:12.356Z,9.35
2019-04-10T07:09:42.063Z,8.88
2019-04-10T07:12:12.528Z,8.30
2019-04-10T07:14:45.538Z,7.83
2019-04-10T07:17:16.566Z,7.03
2019-04-10T07:19:46.860Z,8.70
2019-04-10T07:22:17.532Z,10.40
2019-04-10T07:24:48.307Z,8.38
2019-04-10T07:27:19.506Z,8.05
2019-04-10T07:29:52.306Z,9.28
2019-04-10T07:32:24.172Z,9.55
2019-04-10T07:34:59.204Z,7.22
2019-04-10T07:37:26.904Z,8.88
2019-04-10T07:39:59.723Z,8.90
2019-04-10T07:42:36.541Z,6.33
2019-04-10T07:45:01.217Z,9.25
2019-04-10T07:47:32.537Z,8.68
2019-04-10T07:50:04.589Z,7.53
2019-04-10T07:52:35.208Z,8.15
2019-04-10T07:55:06.607Z,7.20
2019-04-10T07:57:38.506Z,8.85
2019-04-10T08:00:11.099Z,7.00
2019-04-10T08:02:42.639Z,7.87
2019-04-10T08:05:13.385Z,9.03
2019-04-10T08:07:43.614Z,9.10
2019-04-10T08:10:14.169Z,7.35
2019-04-10T08:12:49.035Z,6.12
2019-04-10T08:15:16.865Z,7.47
2019-04-10T08:17:50.503Z,8.13
2019-04-10T08:20:19.138Z,7.62
2019-04-10T08:22:49.412Z,7.37
2019-04-10T08:28:45.360Z,6.00
2019-04-10T08:31:16.981Z,8.75
2019-04-10T08:33:47.428Z,7.53
2019-04-10T08:36:17.828Z,7.97
2019-04-10T08:38:48.960Z,7.08
2019-04-10T08:41:19.503Z,6.60
2019-04-10T08:43:50.291Z,6.50
2019-04-10T08:46:21.853Z,5.62
2019-04-10T08:48:52.152Z,6.62
2019-04-10T08:51:23.421Z,8.73
2019-04-10T08:53:55.631Z,6.20
2019-04-10T08:56:25.777Z,9.25
2019-04-10T08:58:57.173Z,9.78
2019-04-10T09:01:27.530Z,8.15
2019-04-10T09:03:57.984Z,9.58
2019-04-10T09:06:28.379Z,9.00
2019-04-10T09:08:59.436Z,13.85
2019-04-10T09:11:32.627Z,13.80
2019-04-10T09:14:03.837Z,11.57
2019-04-10T09:16:34.330Z,14.38
2019-04-10T09:19:05.567Z,16.30
2019-04-10T09:21:36.911Z,15.60
2019-04-10T09:24:08.212Z,19.85
2019-04-10T09:26:38.519Z,17.92
2019-04-10T09:29:08.918Z,18.15
2019-04-10T09:31:40.032Z,15.05
2019-04-10T09:34:11.657Z,12.58
2019-04-10T09:36:42.116Z,11.18
2019-04-10T09:39:14.948Z,9.73
2019-04-10T09:41:46.065Z,9.93
2019-04-10T09:44:16.534Z,10.50
2019-04-10T09:46:47.317Z,10.50
2019-04-10T09:49:17.631Z,9.53
2019-04-10T09:51:48.186Z,10.95
2019-04-10T09:54:18.616Z,12.37
2019-04-10T09:56:49.241Z,11.25
2019-04-10T09:59:31.254Z,11.55
2019-04-10T10:01:53.279Z,11.28
2019-04-10T10:04:23.703Z,10.93
2019-04-10T10:06:53.916Z,11.15
2019-04-10T10:09:24.290Z,10.72
2019-04-10T10:11:55.457Z,11.38
2019-04-10T10:14:26.569Z,12.05
2019-04-10T10:16:58.018Z,12.90
2019-04-10T10:19:28.491Z,11.88
2019-04-10T10:22:01.776Z,10.55
2019-04-10T10:24:30.963Z,9.33
2019-04-10T10:27:01.949Z,11.88
2019-04-10T10:29:33.456Z,10.25
2019-04-10T10:32:04.628Z,13.40
2019-04-10T10:34:35.123Z,11.97
2019-04-10T10:37:06.346Z,13.68
2019-04-10T10:39:38.906Z,12.60
2019-04-10T10:42:09.596Z,11.22
2019-04-10T10:44:40.444Z,12.00
2019-04-10T10:47:11.743Z,13.70
2019-04-10T10:49:42.398Z,13.55
2019-04-10T10:52:12.873Z,14.38
2019-04-10T10:54:43.283Z,12.47
2019-04-10T10:57:13.687Z,13.25
2019-04-10T10:59:44.099Z,16.77
2019-04-10T11:02:15.353Z,16.10
2019-04-10T11:04:45.673Z,14.05
2019-04-10T11:07:18.606Z,16.77
2019-04-10T11:09:50.297Z,16.32
2019-04-10T11:12:21.904Z,17.77
2019-04-10T11:14:52.358Z,15.32
2019-04-10T11:17:22.868Z,16.27
2019-04-10T11:19:53.554Z,13.15
2019-04-10T11:22:25.795Z,15.85
2019-04-10T11:24:55.951Z,16.52
2019-04-10T11:27:28.003Z,19.27
2019-04-10T11:30:00.813Z,17.17
2019-04-10T11:32:33.935Z,18.15
2019-04-10T11:35:06.717Z,19.57
2019-04-10T11:37:43.438Z,15.83
2019-04-10T11:40:09.579Z,20.00
2019-04-10T11:42:40.288Z,19.00
2019-04-10T11:45:13.706Z,20.15
2019-04-10T11:47:44.922Z,18.65
2019-04-10T11:50:18.407Z,17.35
2019-04-10T11:52:52.401Z,14.65
2019-04-10T11:55:22.000Z,16.45
2019-04-10T11:57:51.877Z,17.65
2019-04-10T12:00:45.286Z,18.52
2019-04-10T12:03:10.297Z,17.42
2019-04-10T12:05:42.049Z,19.48
2019-04-10T12:08:48.597Z,22.15
2019-04-10T12:13:17.982Z,20.35
2019-04-10T12:15:48.601Z,18.15
2019-04-10T12:18:18.837Z,18.23
2019-04-10T12:20:49.254Z,21.82
2019-04-10T12:23:20.866Z,27.80
2019-04-10T12:25:52.182Z,18.57
2019-04-10T12:28:23.153Z,20.02
2019-04-10T12:30:55.491Z,19.48
2019-04-10T12:33:25.815Z,22.15
2019-04-10T12:35:56.230Z,18.92
2019-04-10T12:38:27.646Z,18.25
2019-04-10T12:40:59.017Z,19.87
2019-04-10T12:43:29.459Z,22.73
2019-04-10T12:46:00.303Z,23.47
2019-04-10T12:48:31.004Z,20.48
2019-04-10T12:51:01.437Z,19.32
2019-04-10T12:53:31.799Z,19.25
2019-04-10T12:56:02.126Z,27.87
2019-04-10T12:58:32.985Z,24.18
2019-04-10T13:01:04.527Z,20.88
2019-04-10T13:03:35.556Z,27.82
2019-04-10T13:06:07.435Z,25.92
2019-04-10T13:08:52.637Z,21.55
2019-04-10T13:11:10.155Z,23.57
2019-04-10T13:13:40.466Z,21.33
2019-04-10T13:16:11.984Z,20.30
2019-04-10T13:18:42.789Z,20.10
2019-04-10T13:21:14.683Z,21.68
2019-04-10T13:23:45.000Z,19.80
2019-04-10T13:26:15.621Z,18.17
2019-04-10T13:28:45.996Z,20.62
2019-04-10T13:31:17.189Z,20.32
2019-04-10T13:33:47.452Z,20.77
2019-04-10T13:36:17.723Z,21.70
2019-04-10T13:38:48.540Z,21.10
2019-04-10T13:41:19.297Z,18.73
2019-04-10T13:43:50.377Z,19.30
2019-04-10T13:46:20.620Z,22.93
2019-04-10T13:48:50.833Z,22.80
2019-04-10T13:51:21.361Z,22.65
2019-04-10T13:53:52.316Z,24.20
2019-04-10T13:56:23.268Z,19.85
2019-04-10T13:58:53.674Z,22.40
2019-04-10T14:01:27.940Z,25.00
2019-04-10T14:03:58.667Z,26.73
2019-04-10T14:06:29.711Z,20.88
2019-04-10T14:09:17.856Z,24.43
2019-04-10T14:11:33.807Z,22.42
2019-04-10T14:14:04.511Z,24.50
2019-04-10T14:16:36.989Z,22.22
2019-04-10T14:19:09.621Z,20.27
2019-04-10T14:21:40.856Z,26.42
2019-04-10T14:24:13.364Z,19.62
2019-04-10T14:27:11.964Z,20.50
2019-04-10T14:29:42.693Z,24.45
2019-04-10T14:32:18.853Z,34.00
2019-04-10T14:34:49.139Z,33.53
2019-04-10T14:37:19.548Z,43.35
2019-04-10T14:39:49.902Z,43.08
2019-04-10T14:54:43.985Z,51.50
2019-04-10T15:01:39.401Z,59.42
2019-04-10T15:04:44.184Z,62.70
2019-04-10T15:12:33.279Z,73.28
2019-04-10T15:18:41.212Z,94.00
2019-04-10T15:21:12.375Z,90.15
2019-04-10T15:23:42.676Z,93.50
2019-04-10T15:26:13.446Z,94.30
2019-04-10T15:28:43.744Z,101.62
2019-04-10T15:31:15.074Z,106.47
2019-04-10T15:33:45.374Z,99.83
2019-04-10T15:36:15.857Z,100.55
2019-04-10T15:38:46.392Z,106.37
2019-04-10T15:41:16.962Z,98.00
2019-04-10T15:43:51.679Z,104.70
2019-04-10T15:46:22.102Z,100.00
2019-04-10T15:48:52.930Z,106.97
2019-04-10T15:51:24.453Z,97.82
2019-04-10T15:53:54.729Z,86.37
2019-04-10T15:56:25.667Z,98.52
2019-04-10T15:58:56.875Z,89.77
2019-04-10T16:01:28.575Z,88.58
2019-04-10T16:03:59.107Z,91.02
2019-04-10T16:06:29.415Z,91.57
2019-04-10T16:09:00.978Z,86.50
2019-04-10T16:11:48.812Z,96.28
2019-04-10T16:14:23.187Z,89.03
2019-04-10T16:17:07.070Z,79.90
2019-04-10T16:19:45.050Z,82.02
2019-04-10T16:22:33.466Z,85.87
2019-04-10T16:25:18.440Z,77.87
2019-04-10T16:27:48.738Z,76.55
2019-04-10T16:30:22.109Z,80.70
2019-04-10T16:32:52.379Z,80.87
2019-04-10T16:35:23.151Z,67.50
2019-04-10T16:37:53.427Z,73.55
2019-04-10T16:40:23.704Z,84.05
2019-04-10T16:42:55.093Z,82.88
2019-04-10T16:45:26.520Z,79.15
2019-04-10T16:47:56.722Z,94.72
2019-04-10T16:50:27.880Z,80.80
2019-04-10T16:52:58.141Z,81.75
2019-04-10T16:55:29.096Z,94.25
2019-04-10T16:57:59.381Z,92.67
2019-04-10T17:00:29.779Z,88.47
2019-04-10T17:03:00.063Z,97.08
2019-04-10T17:05:33.128Z,85.72
2019-04-10T17:08:03.629Z,98.27
2019-04-10T17:10:34.554Z,91.02
2019-04-10T17:13:07.302Z,97.00
2019-04-10T17:15:37.741Z,99.03
2019-04-10T17:18:08.711Z,106.47
2019-04-10T17:20:39.054Z,104.07
2019-04-10T17:23:10.013Z,97.65
2019-04-10T17:25:40.575Z,103.07
2019-04-10T17:28:12.189Z,101.72
2019-04-10T17:30:42.750Z,110.12
2019-04-10T17:33:13.255Z,103.20
2019-04-10T17:35:45.525Z,101.45
2019-04-10T17:38:15.856Z,86.05
2019-04-10T17:40:50.659Z,92.30
2019-04-10T17:43:19.022Z,101.90
2019-04-10T17:45:49.381Z,102.70
2019-04-10T17:48:19.922Z,85.97
2019-04-10T17:50:50.198Z,97.35
2019-04-10T17:53:21.105Z,80.90
2019-04-10T17:55:51.652Z,97.27
2019-04-10T17:58:23.047Z,97.60
2019-04-10T18:00:55.891Z,101.40
2019-04-10T18:03:39.675Z,107.97
2019-04-10T18:05:59.102Z,105.37
2019-04-10T18:08:30.107Z,106.05
2019-04-10T18:11:00.416Z,110.88
2019-04-10T18:13:30.914Z,104.85
2019-04-10T18:16:02.342Z,109.42
2019-04-10T18:18:32.711Z,105.25
2019-04-10T18:21:03.006Z,102.75
2019-04-10T18:23:33.580Z,109.15
2019-04-10T18:26:04.573Z,108.40
2019-04-10T18:28:36.499Z,96.20
2019-04-10T18:31:08.386Z,102.95
2019-04-10T18:33:38.719Z,94.92
2019-04-10T18:36:09.196Z,87.65
2019-04-10T18:38:39.618Z,99.10
2019-04-10T18:41:10.083Z,103.75
2019-04-10T18:43:40.392Z,105.30
2019-04-10T18:46:14.760Z,104.43
2019-04-10T18:48:45.607Z,100.12
2019-04-10T18:51:15.958Z,97.00
2019-04-10T18:53:46.320Z,102.42
2019-04-10T18:56:16.730Z,102.80
2019-04-10T18:59:21.184Z,96.67
2019-04-10T19:02:16.304Z,98.80
2019-04-10T19:04:51.699Z,102.33
2019-04-10T19:07:22.899Z,98.97
2019-04-10T19:09:53.201Z,101.75
2019-04-10T19:12:24.398Z,95.12
2019-04-10T19:14:54.745Z,104.75
2019-04-10T19:17:25.019Z,94.67
2019-04-10T19:19:55.253Z,104.55
2019-04-10T19:22:26.297Z,100.60
2019-04-10T19:24:56.722Z,98.07
2019-04-10T19:27:30.084Z,99.62
2019-04-10T19:30:00.439Z,115.80
2019-04-10T19:32:39.689Z,103.15
2019-04-10T19:35:19.989Z,95.00
2019-04-10T19:37:52.855Z,108.25
2019-04-10T19:40:23.539Z,98.42
2019-04-10T19:42:53.965Z,106.55
2019-04-10T19:45:24.191Z,116.30
2019-04-10T19:47:54.715Z,115.80
2019-04-10T19:50:25.523Z,115.95
2019-04-10T19:52:55.722Z,121.02
2019-04-10T19:55:26.091Z,108.95
2019-04-10T19:57:57.400Z,111.35
2019-04-10T20:00:32.754Z,118.55
2019-04-10T20:05:32.344Z,117.67
2019-04-10T20:08:02.700Z,120.33
2019-04-10T20:10:33.179Z,118.02
2019-04-10T20:13:03.377Z,124.72
2019-04-10T20:15:34.189Z,119.87
2019-04-10T20:18:04.835Z,122.60
2019-04-10T20:20:36.114Z,118.95
2019-04-10T20:23:07.079Z,121.50
2019-04-10T20:25:38.720Z,111.85
2019-04-10T20:28:09.063Z,107.05
2019-04-10T20:30:40.361Z,120.85
2019-04-10T20:33:10.794Z,127.32
2019-04-10T20:35:40.995Z,120.05
2019-04-10T20:38:11.431Z,126.92
2019-04-10T20:40:42.299Z,107.92
2019-04-10T20:43:13.708Z,119.90
2019-04-10T20:45:44.078Z,109.70
2019-04-10T20:48:14.301Z,115.22
2019-04-10T20:50:44.546Z,122.70
2019-04-10T20:53:15.788Z,117.57
2019-04-10T20:55:46.178Z,126.92
2019-04-10T20:58:18.660Z,132.72
2019-04-10T21:00:49.813Z,126.85
2019-04-10T21:03:20.303Z,129.30
2019-04-10T21:05:52.797Z,122.70
2019-04-10T21:08:23.239Z,119.15
2019-04-10T21:10:54.720Z,123.78
2019-04-10T21:13:25.385Z,109.05
2019-04-10T21:15:55.792Z,113.08
2019-04-10T21:18:27.128Z,96.95
2019-04-10T21:20:57.668Z,107.03
2019-04-10T21:23:27.944Z,91.35
2019-04-10T21:25:58.163Z,82.82
2019-04-10T21:28:28.437Z,98.45
2019-04-10T21:31:27.331Z,91.02
2019-04-10T21:34:22.796Z,104.32
2019-04-10T21:36:53.397Z,93.05
2019-04-10T21:39:23.930Z,87.50
2019-04-10T21:41:54.276Z,97.67
2019-04-10T21:44:24.742Z,104.15
2019-04-10T21:46:55.146Z,95.60
2019-04-10T21:49:26.177Z,92.22
2019-04-10T21:51:57.897Z,93.45
2019-04-10T21:54:29.286Z,75.45
2019-04-10T21:56:59.825Z,86.67
2019-04-10T21:59:31.014Z,96.70
2019-04-10T22:02:02.652Z,97.37
2019-04-10T22:04:33.156Z,91.72
2019-04-10T22:07:22.050Z,78.50
2019-04-10T22:10:10.171Z,75.70
2019-04-10T22:12:45.490Z,105.00
2019-04-10T22:15:24.984Z,113.68
2019-04-10T22:17:55.262Z,106.12
2019-04-10T22:20:25.702Z,111.77
2019-04-10T22:22:55.971Z,110.08
2019-04-10T22:25:27.614Z,124.95
2019-04-10T22:27:58.360Z,111.97
2019-04-10T22:30:29.756Z,113.52
2019-04-10T22:33:00.024Z,114.35
2019-04-10T22:35:31.348Z,105.15
2019-04-10T22:38:02.630Z,104.15
2019-04-10T22:40:33.365Z,99.15
2019-04-10T22:43:03.724Z,95.70
2019-04-10T22:45:34.367Z,91.40
2019-04-10T22:48:06.162Z,109.10
2019-04-10T22:50:36.563Z,101.45
2019-04-10T22:53:06.934Z,106.55
2019-04-10T22:55:37.248Z,94.42
2019-04-10T22:58:08.623Z,98.12
2019-04-10T23:00:39.796Z,97.78
2019-04-10T23:03:11.379Z,99.28
2019-04-10T23:05:42.772Z,107.25
2019-04-10T23:08:13.499Z,97.20
2019-04-10T23:10:43.937Z,112.00
2019-04-10T23:13:14.211Z,108.12
2019-04-10T23:15:44.714Z,104.95
2019-04-10T23:18:15.164Z,105.15
2019-04-10T23:20:45.363Z,99.35
2019-04-10T23:23:16.811Z,100.78
2019-04-10T23:25:47.281Z,107.17
2019-04-10T23:28:17.709Z,97.50
2019-04-10T23:30:48.862Z,99.00
2019-04-10T23:33:19.696Z,96.90
2019-04-10T23:35:49.980Z,93.65
2019-04-10T23:38:20.176Z,90.42
2019-04-10T23:40:51.507Z,83.95
2019-04-10T23:43:22.763Z,88.52
2019-04-10T23:45:55.779Z,87.67
2019-04-10T23:48:26.105Z,86.55
2019-04-10T23:50:56.650Z,85.32
2019-04-10T23:53:28.762Z,83.65
2019-04-10T23:55:59.282Z,84.40
2019-04-10T23:58:29.837Z,75.70
